createdAt,value
2023-06-14T00:01:26.288Z,99999.13
2023-06-14T00:03:55.441Z,99995.63
2023-06-14T00:06:25.699Z,99996.13
2023-06-14T00:08:55.312Z,100000.84
2023-06-14T00:11:25.342Z,99994.19
2023-06-14T00:13:54.077Z,99987.47
2023-06-14T00:16:22.506Z,99993.19
2023-06-14T00:18:52.944Z,99996.59
2023-06-14T00:21:22.088Z,99992.22
2023-06-14T00:23:53.021Z,99990.53
2023-06-14T00:26:22.092Z,100000.78
2023-06-14T00:28:52.232Z,99995.59
2023-06-14T00:31:20.964Z,99996.63
2023-06-14T00:33:49.615Z,99998.56
2023-06-14T00:36:22.938Z,99994.38
2023-06-14T00:38:52.323Z,99994.69
2023-06-14T00:41:20.848Z,99998.16
2023-06-14T00:43:49.508Z,100002.53
2023-06-14T00:46:20.483Z,100000.59
2023-06-14T00:48:51.883Z,99997.56
2023-06-14T00:51:21.142Z,99996.94
2023-06-14T00:53:52.695Z,100005.84
2023-06-14T00:56:22.052Z,99999.78
2023-06-14T00:58:54.056Z,100004.28
2023-06-14T01:01:27.503Z,99997.28
2023-06-14T01:03:56.802Z,99999.94
2023-06-14T01:06:32.248Z,99993.13
2023-06-14T01:09:08.981Z,99998.88
2023-06-14T01:11:43.749Z,99992.75
2023-06-14T01:14:15.715Z,99996.06
2023-06-14T01:16:46.589Z,99993.44
2023-06-14T01:19:17.240Z,100000.34
2023-06-14T01:21:46.196Z,100000.19
2023-06-14T01:24:16.310Z,99998.34
2023-06-14T01:26:47.516Z,100001.94
2023-06-14T01:29:19.032Z,99989.03
2023-06-14T01:31:48.750Z,99989.81
2023-06-14T01:34:17.464Z,99981.44
2023-06-14T01:36:49.761Z,99991.97
2023-06-14T01:39:20.531Z,99986.22
2023-06-14T01:41:51.597Z,99986.31
2023-06-14T01:44:21.832Z,100000.31
2023-06-14T01:46:51.163Z,100000.84
2023-06-14T01:49:20.242Z,100004.19
2023-06-14T01:51:49.613Z,100003.22
2023-06-14T01:54:20.067Z,100007.09
2023-06-14T01:56:48.877Z,100000.97
2023-06-14T01:59:18.316Z,100001.38
2023-06-14T02:01:50.476Z,99993.22
2023-06-14T02:04:19.450Z,100000.41
2023-06-14T02:06:50.016Z,99991.91
2023-06-14T02:09:21.836Z,99991.94
2023-06-14T02:11:50.755Z,99992.28
2023-06-14T02:14:20.209Z,99986.38
2023-06-14T02:16:51.354Z,99989.66
2023-06-14T02:19:22.954Z,99986.78
2023-06-14T02:21:54.580Z,99983.06
2023-06-14T02:24:24.827Z,99987.75
2023-06-14T02:26:53.832Z,99979.78
2023-06-14T02:29:23.508Z,99980.03
2023-06-14T02:31:52.639Z,99976.63
2023-06-14T02:34:23.545Z,99992.69
2023-06-14T02:36:56.969Z,99989.81
2023-06-14T02:39:27.223Z,99988.59
2023-06-14T02:41:59.200Z,99985.81
2023-06-14T02:44:31.834Z,99996.00
2023-06-14T02:47:02.999Z,99996.63
2023-06-14T02:49:31.913Z,99994.16
2023-06-14T02:52:01.476Z,100002.00
2023-06-14T02:54:31.951Z,100006.25
2023-06-14T02:57:01.488Z,100002.06
2023-06-14T02:59:30.311Z,100004.28
2023-06-14T03:02:02.359Z,100002.00
2023-06-14T03:04:36.192Z,100006.69
2023-06-14T03:07:10.721Z,100006.78
2023-06-14T03:09:43.814Z,100014.69
2023-06-14T03:12:14.320Z,100002.66
2023-06-14T03:14:43.203Z,100007.25
2023-06-14T03:17:14.836Z,100015.44
2023-06-14T03:19:45.733Z,100015.16
2023-06-14T03:22:15.517Z,100023.81
2023-06-14T03:24:46.161Z,100027.66
2023-06-14T03:27:17.332Z,100024.19
2023-06-14T03:29:48.140Z,100012.41
2023-06-14T03:32:19.293Z,100012.81
2023-06-14T03:34:47.879Z,100018.84
2023-06-14T03:37:21.071Z,100009.13
2023-06-14T03:39:51.783Z,100010.66
2023-06-14T03:42:27.458Z,100006.34
2023-06-14T03:44:57.899Z,100011.22
2023-06-14T03:47:26.885Z,100001.31
2023-06-14T03:49:55.968Z,100000.56
2023-06-14T03:52:24.624Z,99998.66
2023-06-14T03:55:55.544Z,100005.78
2023-06-14T03:57:46.177Z,100010.13
2023-06-14T04:00:19.308Z,100013.06
2023-06-14T04:02:48.265Z,100016.75
2023-06-14T04:05:18.008Z,100021.47
2023-06-14T04:07:51.998Z,100020.59
2023-06-14T04:10:22.096Z,100022.09
2023-06-14T04:12:50.672Z,100019.59
2023-06-14T04:15:21.939Z,100013.31
2023-06-14T04:17:58.517Z,100010.06
2023-06-14T04:20:30.517Z,100018.06
2023-06-14T04:23:02.388Z,100013.06
2023-06-14T04:25:33.559Z,100017.63
2023-06-14T04:28:02.932Z,100013.94
2023-06-14T04:30:32.691Z,100019.06
2023-06-14T04:33:01.631Z,100007.41
2023-06-14T04:35:33.495Z,100013.63
2023-06-14T04:38:03.179Z,100007.50
2023-06-14T04:40:34.711Z,100008.41
2023-06-14T04:43:08.704Z,100010.94
2023-06-14T04:45:38.173Z,100008.25
2023-06-14T04:48:07.946Z,100015.13
2023-06-14T04:50:36.809Z,100016.38
2023-06-14T04:53:06.890Z,100011.06
2023-06-14T04:55:38.420Z,100017.09
2023-06-14T04:58:07.789Z,100007.03
2023-06-14T05:00:36.743Z,100005.72
2023-06-14T05:03:07.632Z,100010.25
2023-06-14T05:05:40.835Z,100011.22
2023-06-14T05:08:09.615Z,100010.00
2023-06-14T05:10:39.698Z,100004.81
2023-06-14T05:13:11.873Z,100009.72
2023-06-14T05:15:40.582Z,100009.59
2023-06-14T05:18:11.266Z,100008.88
2023-06-14T05:20:41.228Z,100014.16
2023-06-14T05:23:09.982Z,100005.41
2023-06-14T05:25:39.797Z,100009.22
2023-06-14T05:28:08.193Z,100007.38
2023-06-14T05:30:36.970Z,100002.63
2023-06-14T05:33:05.734Z,100010.63
2023-06-14T05:35:34.914Z,100005.16
2023-06-14T05:38:03.568Z,100001.16
2023-06-14T05:40:32.054Z,99994.78
2023-06-14T05:43:01.997Z,99989.28
2023-06-14T05:45:31.038Z,100016.47
2023-06-14T05:48:02.183Z,100007.06
2023-06-14T05:50:30.970Z,99993.72
2023-06-14T05:52:59.410Z,100004.88
2023-06-14T05:55:29.106Z,100000.09
2023-06-14T05:58:00.419Z,100001.88
2023-06-14T06:00:32.551Z,100020.31
2023-06-14T06:03:02.269Z,100009.06
2023-06-14T06:05:30.825Z,100013.34
2023-06-14T06:08:05.533Z,100006.78
2023-06-14T06:10:34.349Z,100000.78
2023-06-14T06:13:02.711Z,100000.75
2023-06-14T06:15:32.768Z,100015.03
2023-06-14T06:18:03.945Z,100000.94
2023-06-14T06:20:32.855Z,100012.75
2023-06-14T06:23:03.201Z,100008.25
2023-06-14T06:25:32.899Z,99998.75
2023-06-14T06:28:01.747Z,99998.63
2023-06-14T06:30:32.062Z,99992.94
2023-06-14T06:33:02.231Z,99994.19
2023-06-14T06:35:34.496Z,99989.81
2023-06-14T06:38:03.246Z,99987.19
2023-06-14T06:40:31.655Z,99991.06
2023-06-14T06:43:00.319Z,99997.94
2023-06-14T06:45:30.039Z,99988.94
2023-06-14T06:47:58.897Z,99990.09
2023-06-14T06:50:30.730Z,99994.84
2023-06-14T06:52:59.265Z,99992.06
2023-06-14T06:55:27.699Z,99992.66
2023-06-14T06:57:58.253Z,99993.53
2023-06-14T07:00:49.576Z,99987.19
2023-06-14T07:03:32.237Z,99992.19
2023-06-14T07:06:15.472Z,99974.63
2023-06-14T07:08:44.356Z,99986.09
2023-06-14T07:11:13.199Z,99976.63
2023-06-14T07:13:42.030Z,99985.16
2023-06-14T07:16:10.589Z,99989.19
2023-06-14T07:18:39.769Z,99988.75
2023-06-14T07:21:08.403Z,99983.84
2023-06-14T07:23:42.333Z,99990.88
2023-06-14T07:26:15.095Z,99988.63
2023-06-14T07:28:46.267Z,99979.97
2023-06-14T07:31:20.343Z,99989.25
2023-06-14T07:33:51.133Z,99987.63
2023-06-14T07:36:19.914Z,99986.06
2023-06-14T07:38:49.800Z,99984.59
2023-06-14T07:41:21.487Z,99981.50
2023-06-14T07:43:50.150Z,99982.31
2023-06-14T07:46:21.667Z,99983.13
2023-06-14T07:48:55.141Z,99981.16
2023-06-14T07:51:26.413Z,99982.75
2023-06-14T07:53:56.532Z,99974.34
2023-06-14T07:56:25.187Z,99969.00
2023-06-14T07:58:53.862Z,99972.88
2023-06-14T08:01:26.539Z,99975.66
2023-06-14T08:03:55.863Z,99973.25
2023-06-14T08:06:24.558Z,99973.03
2023-06-14T08:08:56.718Z,99975.06
2023-06-14T08:11:26.194Z,99978.16
2023-06-14T08:13:54.582Z,99974.50
2023-06-14T08:16:23.335Z,99969.47
2023-06-14T08:18:52.185Z,99966.06
2023-06-14T08:21:20.716Z,99969.13
2023-06-14T08:23:49.812Z,99973.69
2023-06-14T08:26:22.385Z,99961.53
2023-06-14T08:28:51.047Z,99976.53
2023-06-14T08:31:19.692Z,99968.59
2023-06-14T08:33:51.026Z,99973.63
2023-06-14T08:36:20.003Z,99985.75
2023-06-14T08:38:48.468Z,99961.59
2023-06-14T08:41:26.029Z,99969.88
2023-06-14T08:43:55.035Z,99959.06
2023-06-14T08:46:23.774Z,99956.66
2023-06-14T08:48:53.379Z,99957.59
2023-06-14T08:51:24.860Z,99962.84
2023-06-14T08:53:58.822Z,99958.88
2023-06-14T08:56:30.304Z,99954.59
2023-06-14T08:59:04.315Z,99953.91
2023-06-14T09:01:35.907Z,99948.88
2023-06-14T09:04:06.846Z,99949.09
2023-06-14T09:06:35.310Z,99947.84
2023-06-14T09:09:05.362Z,99947.31
2023-06-14T09:11:35.305Z,99951.94
2023-06-14T09:14:05.792Z,99941.81
2023-06-14T09:16:35.101Z,99938.91
2023-06-14T09:19:03.951Z,99940.06
2023-06-14T09:21:36.968Z,99945.44
2023-06-14T09:24:07.456Z,99933.44
2023-06-14T09:26:43.331Z,99927.56
2023-06-14T09:29:12.470Z,99934.81
2023-06-14T09:31:46.305Z,99923.06
2023-06-14T09:34:18.642Z,99932.22
2023-06-14T09:36:47.537Z,99927.34
2023-06-14T09:39:21.226Z,99926.94
2023-06-14T09:41:51.762Z,99928.28
2023-06-14T09:44:22.156Z,99942.13
2023-06-14T09:46:51.329Z,99932.66
2023-06-14T09:49:20.096Z,99925.41
2023-06-14T09:51:52.515Z,99919.28
2023-06-14T09:54:25.085Z,99909.72
2023-06-14T09:56:58.816Z,99914.81
2023-06-14T09:59:31.005Z,99923.69
2023-06-14T10:02:02.040Z,99921.53
2023-06-14T10:04:32.644Z,99916.53
2023-06-14T10:07:02.605Z,99917.84
2023-06-14T10:09:33.263Z,99904.13
2023-06-14T10:12:04.241Z,99900.00
2023-06-14T10:14:35.980Z,99894.78
2023-06-14T10:17:09.337Z,99892.97
2023-06-14T10:19:43.686Z,99904.50
2023-06-14T10:22:12.594Z,99897.94
2023-06-14T10:24:44.474Z,99891.63
2023-06-14T10:27:18.573Z,99887.22
2023-06-14T10:30:14.100Z,99892.31
2023-06-14T10:33:00.113Z,99891.84
2023-06-14T10:35:28.647Z,99897.22
2023-06-14T10:37:57.272Z,99887.78
2023-06-14T10:40:33.152Z,99877.47
2023-06-14T10:43:03.122Z,99876.97
2023-06-14T10:45:31.705Z,99873.97
2023-06-14T10:48:00.986Z,99881.91
2023-06-14T10:50:34.982Z,99881.53
2023-06-14T10:53:05.609Z,99867.81
2023-06-14T10:55:37.388Z,99861.19
2023-06-14T10:58:08.652Z,99847.91
2023-06-14T11:00:42.401Z,99855.13
2023-06-14T11:03:37.384Z,99845.28
2023-06-14T11:06:15.628Z,99848.19
2023-06-14T11:09:04.375Z,99847.94
2023-06-14T11:11:36.347Z,99846.75
2023-06-14T11:14:08.883Z,99856.00
2023-06-14T11:16:37.370Z,99845.53
2023-06-14T11:19:06.390Z,99851.59
2023-06-14T11:21:35.873Z,99848.50
2023-06-14T11:24:04.430Z,99846.94
2023-06-14T11:26:36.035Z,99850.09
2023-06-14T11:29:06.965Z,99840.81
2023-06-14T11:31:37.663Z,99849.31
2023-06-14T11:34:07.668Z,99842.78
2023-06-14T11:36:36.809Z,99848.38
2023-06-14T11:39:07.209Z,99844.78
2023-06-14T11:41:38.863Z,99846.63
2023-06-14T11:44:09.487Z,99854.56
2023-06-14T11:46:38.503Z,99831.88
2023-06-14T11:49:08.654Z,99827.16
2023-06-14T11:51:40.778Z,99822.13
2023-06-14T11:54:12.368Z,99820.84
2023-06-14T11:56:41.121Z,99826.16
2023-06-14T11:59:10.904Z,99819.81
2023-06-14T12:01:41.778Z,99819.06
2023-06-14T12:04:10.760Z,99843.59
2023-06-14T12:06:41.168Z,99826.31
2023-06-14T12:09:14.629Z,99829.25
2023-06-14T12:11:47.440Z,99825.97
2023-06-14T12:14:18.062Z,99821.09
2023-06-14T12:16:46.652Z,99824.88
2023-06-14T12:19:16.648Z,99828.41
2023-06-14T12:21:48.063Z,99812.66
2023-06-14T12:24:16.697Z,99809.31
2023-06-14T12:26:48.455Z,99802.78
2023-06-14T12:29:18.724Z,99802.78
2023-06-14T12:31:47.109Z,99824.41
2023-06-14T12:34:15.845Z,99809.16
2023-06-14T12:36:48.594Z,99808.22
2023-06-14T12:39:17.659Z,99799.16
2023-06-14T12:41:46.201Z,99820.13
2023-06-14T12:44:17.389Z,99796.44
2023-06-14T12:46:48.291Z,99794.16
2023-06-14T12:49:16.893Z,99783.84
2023-06-14T12:51:45.684Z,99782.47
2023-06-14T12:54:18.547Z,99785.34
2023-06-14T12:56:52.421Z,99787.03
2023-06-14T12:59:20.987Z,99777.16
2023-06-14T13:01:54.776Z,99791.88
2023-06-14T13:04:23.364Z,99790.97
2023-06-14T13:06:53.110Z,99780.47
2023-06-14T13:09:21.587Z,99779.78
2023-06-14T13:11:52.740Z,99797.97
2023-06-14T13:14:26.023Z,99797.59
2023-06-14T13:16:57.271Z,99780.09
2023-06-14T13:19:28.011Z,99788.88
2023-06-14T13:22:02.288Z,99777.19
2023-06-14T13:24:31.298Z,99769.50
2023-06-14T13:27:00.180Z,99774.63
2023-06-14T13:29:32.475Z,99781.88
2023-06-14T13:32:04.989Z,99782.84
2023-06-14T13:34:33.733Z,99762.88
2023-06-14T13:37:03.716Z,99768.94
2023-06-14T13:39:32.201Z,99765.09
2023-06-14T13:42:00.683Z,99765.69
2023-06-14T13:44:29.450Z,99753.22
2023-06-14T13:46:59.061Z,99752.31
2023-06-14T13:49:34.992Z,99772.47
2023-06-14T13:52:05.197Z,99768.56
2023-06-14T13:54:36.462Z,99758.63
2023-06-14T13:57:05.323Z,99752.94
2023-06-14T13:59:34.804Z,99756.78
2023-06-14T14:02:07.122Z,99775.19
2023-06-14T14:04:38.007Z,99768.75
2023-06-14T14:07:08.281Z,99762.63
2023-06-14T14:09:40.641Z,99763.16
2023-06-14T14:12:15.419Z,99752.41
2023-06-14T14:14:51.649Z,99764.84
2023-06-14T14:17:20.749Z,99758.03
2023-06-14T14:19:50.963Z,99759.66
2023-06-14T14:22:19.519Z,99765.34
2023-06-14T14:24:50.792Z,99761.34
2023-06-14T14:27:19.337Z,99757.97
2023-06-14T14:29:47.820Z,99754.91
2023-06-14T14:32:17.786Z,99769.22
2023-06-14T14:34:48.694Z,99754.13
2023-06-14T14:37:21.560Z,99744.31
2023-06-14T14:39:50.258Z,99760.25
2023-06-14T14:42:19.663Z,99769.03
2023-06-14T14:44:48.258Z,99753.84
2023-06-14T14:47:16.906Z,99758.03
2023-06-14T14:49:45.630Z,99764.19
2023-06-14T14:52:23.313Z,99754.38
2023-06-14T14:54:55.208Z,99762.38
2023-06-14T14:57:24.067Z,99760.59
2023-06-14T14:59:54.517Z,99765.66
2023-06-14T15:02:24.993Z,99757.81
2023-06-14T15:04:53.715Z,99764.09
2023-06-14T15:07:25.296Z,99761.16
2023-06-14T15:09:55.521Z,99755.09
2023-06-14T15:12:24.262Z,99753.19
2023-06-14T15:14:53.439Z,99760.09
2023-06-14T15:17:22.484Z,99765.38
2023-06-14T15:19:51.111Z,99752.03
2023-06-14T15:22:19.720Z,99761.69
2023-06-14T15:24:50.351Z,99758.81
2023-06-14T15:27:20.983Z,99766.16
2023-06-14T15:29:51.504Z,99771.09
2023-06-14T15:32:20.746Z,99760.09
2023-06-14T15:34:49.891Z,99773.28
2023-06-14T15:37:20.972Z,99759.47
2023-06-14T15:39:49.518Z,99755.59
2023-06-14T15:42:18.157Z,99760.97
2023-06-14T15:44:51.171Z,99767.38
2023-06-14T15:47:19.719Z,99754.97
2023-06-14T15:49:48.189Z,99767.03
2023-06-14T15:52:17.223Z,99767.09
2023-06-14T15:54:48.557Z,99767.19
2023-06-14T15:57:18.339Z,99770.38
2023-06-14T15:59:46.750Z,99780.13
2023-06-14T16:02:16.771Z,99777.38
2023-06-14T16:04:45.532Z,99777.06
2023-06-14T16:07:16.811Z,99772.63
2023-06-14T16:09:48.352Z,99774.19
2023-06-14T16:12:19.445Z,99765.13
2023-06-14T16:14:52.121Z,99772.69
2023-06-14T16:17:22.090Z,99774.13
2023-06-14T16:19:50.926Z,99777.06
2023-06-14T16:22:22.505Z,99775.19
2023-06-14T16:24:51.078Z,99773.88
2023-06-14T16:27:20.140Z,99773.38
2023-06-14T16:32:17.561Z,99780.75
2023-06-14T16:34:47.485Z,99778.75
2023-06-14T16:37:17.742Z,99784.06
2023-06-14T16:39:46.228Z,99784.38
2023-06-14T16:42:26.468Z,99794.03
2023-06-14T16:44:58.122Z,99790.50
2023-06-14T16:47:26.841Z,99789.84
2023-06-14T16:50:00.315Z,99782.50
2023-06-14T16:52:29.314Z,99808.19
2023-06-14T16:55:00.032Z,99793.56
2023-06-14T16:57:29.037Z,99798.31
2023-06-14T16:59:57.405Z,99803.50
2023-06-14T17:02:28.652Z,99812.63
2023-06-14T17:05:01.561Z,99811.13
2023-06-14T17:07:32.428Z,99803.47
2023-06-14T17:10:03.726Z,99803.19
2023-06-14T17:12:35.587Z,99803.47
2023-06-14T17:15:08.538Z,99809.59
2023-06-14T17:17:37.392Z,99813.19
2023-06-14T17:20:09.025Z,99802.00
2023-06-14T17:22:37.590Z,99810.22
2023-06-14T17:25:09.738Z,99816.47
2023-06-14T17:27:38.706Z,99809.63
2023-06-14T17:30:08.609Z,99810.88
2023-06-14T17:32:37.316Z,99804.34
2023-06-14T17:35:08.179Z,99812.78
2023-06-14T17:37:37.023Z,99809.97
2023-06-14T17:40:06.620Z,99814.59
2023-06-14T17:42:35.293Z,99823.44
2023-06-14T17:45:04.877Z,99819.19
2023-06-14T17:47:36.741Z,99815.44
2023-06-14T17:50:10.529Z,99817.59
2023-06-14T17:52:39.982Z,99821.44
2023-06-14T17:55:08.922Z,99823.47
2023-06-14T17:57:37.636Z,99825.13
2023-06-14T18:00:09.339Z,99823.84
2023-06-14T18:02:41.767Z,99824.19
2023-06-14T18:05:14.108Z,99823.00
2023-06-14T18:07:45.426Z,99823.19
2023-06-14T18:10:18.559Z,99829.13
2023-06-14T18:12:47.894Z,99830.13
2023-06-14T18:15:16.867Z,99831.25
2023-06-14T18:17:45.709Z,99828.94
2023-06-14T18:20:17.935Z,99831.59
2023-06-14T18:22:46.678Z,99832.88
2023-06-14T18:25:16.964Z,99830.16
2023-06-14T18:27:48.143Z,99831.91
2023-06-14T18:30:16.943Z,99825.63
2023-06-14T18:32:48.103Z,99834.41
2023-06-14T18:35:19.038Z,99845.78
2023-06-14T18:37:47.818Z,99833.53
2023-06-14T18:40:16.554Z,99841.28
2023-06-14T18:42:45.198Z,99841.97
2023-06-14T18:45:13.685Z,99850.38
2023-06-14T18:47:42.584Z,99848.41
2023-06-14T18:50:12.009Z,99846.19
2023-06-14T18:52:41.988Z,99852.38
2023-06-14T18:55:11.654Z,99845.44
2023-06-14T18:57:40.377Z,99838.00
2023-06-14T19:00:10.263Z,99834.56
2023-06-14T19:02:39.646Z,99838.16
2023-06-14T19:05:09.320Z,99830.41
2023-06-14T19:07:37.930Z,99837.38
2023-06-14T19:10:08.995Z,99839.72
2023-06-14T19:12:38.373Z,99827.63
2023-06-14T19:15:07.753Z,99832.22
2023-06-14T19:17:36.393Z,99830.31
2023-06-14T19:20:05.609Z,99834.16
2023-06-14T19:22:34.225Z,99836.53
2023-06-14T19:25:03.009Z,99831.97
2023-06-14T19:27:36.255Z,99835.78
2023-06-14T19:30:06.479Z,99839.25
2023-06-14T19:32:36.785Z,99835.31
2023-06-14T19:35:06.574Z,99839.34
2023-06-14T19:37:35.050Z,99831.47
2023-06-14T19:40:03.497Z,99834.38
2023-06-14T19:42:35.739Z,99835.00
2023-06-14T19:45:04.414Z,99835.78
2023-06-14T19:47:34.028Z,99844.44
2023-06-14T19:50:02.666Z,99846.25
2023-06-14T19:52:32.486Z,99850.56
2023-06-14T19:55:01.316Z,99842.31
2023-06-14T19:57:31.941Z,99848.91
2023-06-14T20:00:04.360Z,99851.19
2023-06-14T20:02:37.188Z,99844.81
2023-06-14T20:05:06.279Z,99843.59
2023-06-14T20:07:34.708Z,99844.59
2023-06-14T20:10:03.761Z,99849.16
2023-06-14T20:12:33.187Z,99851.53
2023-06-14T20:15:03.331Z,99853.34
2023-06-14T20:17:33.421Z,99846.44
2023-06-14T20:20:01.932Z,99848.09
2023-06-14T20:22:38.551Z,99841.59
2023-06-14T20:25:11.011Z,99844.91
2023-06-14T20:27:39.729Z,99847.75
2023-06-14T20:30:10.839Z,99853.63
2023-06-14T20:32:39.712Z,99849.59
2023-06-14T20:35:08.749Z,99853.59
2023-06-14T20:37:37.364Z,99855.34
2023-06-14T20:40:07.527Z,99866.44
2023-06-14T20:42:36.337Z,99853.28
2023-06-14T20:45:07.871Z,99868.34
2023-06-14T20:47:38.814Z,99861.34
2023-06-14T20:50:09.287Z,99861.13
2023-06-14T20:52:37.838Z,99854.06
2023-06-14T20:55:07.435Z,99850.19
2023-06-14T20:57:36.194Z,99852.44
2023-06-14T21:00:11.376Z,99847.19
2023-06-14T21:02:41.640Z,99852.44
2023-06-14T21:05:10.659Z,99864.59
2023-06-14T21:07:39.376Z,99858.75
2023-06-14T21:10:08.444Z,99855.13
2023-06-14T21:12:37.097Z,99855.63
2023-06-14T21:15:06.460Z,99857.47
2023-06-14T21:17:35.158Z,99861.44
2023-06-14T21:20:06.667Z,99859.16
2023-06-14T21:22:36.003Z,99862.53
2023-06-14T21:25:04.707Z,99873.38
2023-06-14T21:27:33.692Z,99875.81
2023-06-14T21:30:02.406Z,99869.31
2023-06-14T21:32:33.639Z,99865.09
2023-06-14T21:35:02.334Z,99865.41
2023-06-14T21:37:34.412Z,99860.03
2023-06-14T21:40:13.352Z,99864.63
2023-06-14T21:42:42.333Z,99859.72
2023-06-14T21:45:12.445Z,99866.09
2023-06-14T21:47:41.229Z,99857.72
2023-06-14T21:50:10.715Z,99864.06
2023-06-14T21:52:40.590Z,99862.72
2023-06-14T21:55:09.884Z,99860.25
2023-06-14T21:57:38.366Z,99856.00
2023-06-14T22:00:09.787Z,99865.59
2023-06-14T22:02:38.365Z,99854.81
2023-06-14T22:05:07.852Z,99852.50
2023-06-14T22:07:36.827Z,99851.88
2023-06-14T22:10:07.961Z,99861.91
2023-06-14T22:12:36.489Z,99855.34
2023-06-14T22:15:06.226Z,99856.88
2023-06-14T22:17:35.815Z,99858.78
2023-06-14T22:20:06.795Z,99860.91
2023-06-14T22:22:39.067Z,99861.72
2023-06-14T22:25:10.028Z,99860.91
2023-06-14T22:27:47.980Z,99869.34
2023-06-14T22:30:18.004Z,99862.50
2023-06-14T22:32:47.278Z,99858.94
2023-06-14T22:35:16.298Z,99857.88
2023-06-14T22:37:44.991Z,99858.50
2023-06-14T22:40:15.543Z,99845.97
2023-06-14T22:42:49.869Z,99862.84
2023-06-14T22:45:24.444Z,99848.22
2023-06-14T22:47:54.781Z,99858.69
2023-06-14T22:50:23.953Z,99859.47
2023-06-14T22:52:52.716Z,99859.53
2023-06-14T22:55:27.670Z,99853.47
2023-06-14T22:57:57.041Z,99853.28
2023-06-14T23:00:25.664Z,99847.13
2023-06-14T23:02:54.646Z,99856.31
2023-06-14T23:05:23.177Z,99861.34
2023-06-14T23:07:53.161Z,99853.25
2023-06-14T23:10:24.114Z,99853.91
2023-06-14T23:12:52.838Z,99851.53
2023-06-14T23:15:23.847Z,99851.88
2023-06-14T23:17:53.872Z,99851.44
2023-06-14T23:20:23.097Z,99852.34
2023-06-14T23:22:53.165Z,99847.34
2023-06-14T23:25:25.651Z,99855.34
2023-06-14T23:27:54.360Z,99848.25
2023-06-14T23:30:23.983Z,99849.97
2023-06-14T23:32:52.491Z,99846.91
2023-06-14T23:35:22.317Z,99841.31
2023-06-14T23:37:51.782Z,99850.59
2023-06-14T23:40:20.464Z,99852.78
2023-06-14T23:42:52.172Z,99849.03
2023-06-14T23:45:23.750Z,99849.66
2023-06-14T23:47:54.537Z,99846.69
2023-06-14T23:50:23.499Z,99846.41
2023-06-14T23:52:58.618Z,99858.66
2023-06-14T23:55:30.794Z,99852.84
2023-06-14T23:58:01.307Z,99850.38
